Flinterborg — PHPH — position and weather

sailwx.info

Track history (hours):
 
Tides and Currents Weather Stations Pressure Air Temp Water Temp Dewpoint Dewpoint Depression Visibility Wind Speed Wind Dir Waves Ship Positions

Flinterborg

Last reported at 2017-Jan-01 18:31 UTC. Time now 2017-Jan-19 21:24 UTC.
Position N 39°18' W 010°03'.
Warning: this ship's position is 18 days out of date.

Length 111 m; draft 6.4 m.

Type: Ship. MMSI: 245433000.

Date/timePositionNaut miles runAvg speedWind from/ knotsBaromVisibWave heightAir tempDewpointWater temp
2017-Jan-01 18:31N 39°18' W 010°03'1111.3
2017-Jan-01 17:33N 39°07' W 009°58'1211.6
2017-Jan-01 16:33N 38°56' W 009°55'1211.6
2017-Jan-01 15:33N 38°45' W 009°51'1211.6
2017-Jan-01 14:33N 38°33' W 009°48'1111.3
2017-Jan-01 13:33N 38°22' W 009°45'1111.0
2017-Jan-01 12:33N 38°11' W 009°42'  
2016-Dec-28 07:33N 37°38' E 009°09'1010.4
2016-Dec-28 06:33N 37°38' E 009°22'1010.3
2016-Dec-28 05:33N 37°38' E 009°35'1010.1
2016-Dec-28 04:32N 37°38' E 009°48'  
Track history (hours):
 
Tides and Currents Weather Stations Pressure Air Temp Water Temp Dewpoint Dewpoint Depression Visibility Wind Speed Wind Dir Waves Ship Positions

Flinterborg

Last reported at 2017-Jan-01 18:31 UTC. Time now 2017-Jan-19 21:24 UTC.
Position N 39°18' W 010°03'.
Warning: this ship's position is 18 days out of date.

Length 111 m; draft 6.4 m.

Type: Ship. MMSI: 245433000.

Date/timePositionNaut miles runAvg speedWind from/ knotsBaromVisibWave heightAir tempDewpointWater temp
2017-Jan-01 18:31N 39°18' W 010°03'1111.3
2017-Jan-01 17:33N 39°07' W 009°58'1211.6
2017-Jan-01 16:33N 38°56' W 009°55'1211.6
2017-Jan-01 15:33N 38°45' W 009°51'1211.6
2017-Jan-01 14:33N 38°33' W 009°48'1111.3
2017-Jan-01 13:33N 38°22' W 009°45'1111.0
2017-Jan-01 12:33N 38°11' W 009°42'  
2016-Dec-28 07:33N 37°38' E 009°09'1010.4
2016-Dec-28 06:33N 37°38' E 009°22'1010.3
2016-Dec-28 05:33N 37°38' E 009°35'1010.1
2016-Dec-28 04:32N 37°38' E 009°48'  

Dump ship's entire track history